Time;durP1;ratioP1;P1;durP2;ratioP2;P2;SDS_P1;SDS_P2;PMS_P1;PMS_P2;Temp;Humidity;BMP_temperature;BMP_pressure;BME280_temperature;BME280_humidity;BME280_pressure;Samples;Min_cycle;Max_cycle;Signal;HPM_P1;HPM_P2
2022/04/08 00:01:29;;;;;;;3.30;0.93;;;;;;;;;;5046056;28;21118;-70
2022/04/08 00:03:56;;;;;;;1.53;1.00;;;;;;;;;;5036027;28;20493;-71
2022/04/08 00:06:23;;;;;;;1.10;0.80;;;;;;;;;;5026058;28;20454;-70
2022/04/08 00:08:50;;;;;;;1.00;0.70;;;;;;;;;;5041494;28;20474;-71
2022/04/08 00:11:17;;;;;;;2.70;0.83;;;;;;;;;;5036283;28;20973;-70
2022/04/08 00:13:43;;;;;;;1.57;0.80;;;;;;;;;;5025941;28;20446;-71
2022/04/08 00:16:10;;;;;;;2.13;0.90;;;;;;;;;;5034730;28;20944;-70
2022/04/08 00:18:39;;;;;;;1.37;0.90;;;;;;;;;;5027125;28;20515;-70
2022/04/08 00:21:06;;;;;;;1.90;1.07;;;;;;;;;;5015461;28;20481;-71
2022/04/08 00:23:32;;;;;;;0.97;0.60;;;;;;;;;;5042063;28;20203;-71
2022/04/08 00:25:59;;;;;;;1.23;0.80;;;;;;;;;;5049590;28;20940;-71
2022/04/08 00:28:45;;;;;;;0.90;0.70;;;;;;;;;;5045405;28;20441;-70
2022/04/08 00:31:13;;;;;;;5.13;0.90;;;;;;;;;;5036797;28;20191;-70
2022/04/08 00:33:57;;;;;;;0.93;0.63;;;;;;;;;;5037125;28;20504;-70
2022/04/08 00:36:24;;;;;;;0.97;0.53;;;;;;;;;;5045567;28;20187;-71
2022/04/08 00:38:51;;;;;;;1.73;0.80;;;;;;;;;;5032984;28;20480;-71
2022/04/08 00:41:18;;;;;;;1.13;0.80;;;;;;;;;;5047761;28;20428;-70
2022/04/08 00:43:44;;;;;;;3.80;0.60;;;;;;;;;;5043614;28;20563;-71
2022/04/08 00:46:11;;;;;;;1.07;0.70;;;;;;;;;;5045378;28;20548;-70
2022/04/08 00:48:38;;;;;;;1.13;0.60;;;;;;;;;;5028225;28;20569;-71
2022/04/08 00:51:05;;;;;;;1.03;0.57;;;;;;;;;;5038213;28;21038;-71
2022/04/08 00:53:33;;;;;;;1.60;0.80;;;;;;;;;;5026562;28;20484;-70
2022/04/08 00:56:01;;;;;;;1.60;0.67;;;;;;;;;;5027749;28;20210;-70
2022/04/08 00:58:28;;;;;;;1.33;0.73;;;;;;;;;;5040373;28;20968;-71
2022/04/08 01:00:54;;;;;;;4.80;0.90;;;;;;;;;;5025517;28;20442;-71
2022/04/08 01:03:21;;;;;;;3.07;0.60;;;;;;;;;;5031177;28;20568;-71
2022/04/08 01:38:07;;;;;;;1.90;0.93;;;;;;;;;;5030975;28;20290;-71
2022/04/08 01:40:35;;;;;;;1.57;0.80;;;;;;;;;;5044766;28;20436;-71
2022/04/08 01:43:01;;;;;;;2.87;1.00;;;;;;;;;;5048772;28;20461;-71
2022/04/08 01:45:28;;;;;;;2.23;0.90;;;;;;;;;;5033176;28;20218;-72
2022/04/08 01:47:55;;;;;;;1.17;0.87;;;;;;;;;;5047583;28;20437;-72
2022/04/08 01:50:22;;;;;;;0.93;0.80;;;;;;;;;;5039381;28;20496;-72
2022/04/08 01:52:48;;;;;;;2.47;1.03;;;;;;;;;;5035532;28;20464;-72
2022/04/08 01:55:33;;;;;;;3.63;0.77;;;;;;;;;;5036858;28;20429;-73
2022/04/08 01:58:02;;;;;;;1.83;1.20;;;;;;;;;;5044128;28;21127;-71
2022/04/08 02:00:29;;;;;;;2.63;0.90;;;;;;;;;;5037964;28;21006;-72
2022/04/08 02:02:56;;;;;;;5.33;1.10;;;;;;;;;;5035955;28;21185;-71
2022/04/08 02:05:23;;;;;;;2.57;1.43;;;;;;;;;;5047358;28;20504;-72
2022/04/08 02:08:07;;;;;;;2.47;1.30;;;;;;;;;;5039996;28;20433;-72
2022/04/08 02:10:33;;;;;;;0.87;0.70;;;;;;;;;;5028884;28;20426;-72
2022/04/08 02:13:00;;;;;;;1.40;0.80;;;;;;;;;;5028383;28;20899;-72
2022/04/08 02:15:29;;;;;;;3.63;0.93;;;;;;;;;;5029707;28;20453;-71
2022/04/08 02:17:56;;;;;;;2.67;0.93;;;;;;;;;;5014780;28;20476;-72
2022/04/08 02:20:40;;;;;;;1.83;1.00;;;;;;;;;;5048199;28;20429;-72
2022/04/08 02:23:07;;;;;;;1.47;1.10;;;;;;;;;;5039631;28;20861;-72
2022/04/08 02:25:51;;;;;;;1.97;1.10;;;;;;;;;;5030401;28;20426;-72
2022/04/08 02:28:18;;;;;;;1.57;1.07;;;;;;;;;;5054924;28;20441;-71
2022/04/08 02:31:05;;;;;;;3.23;1.00;;;;;;;;;;5028669;28;20435;-72
2022/04/08 02:33:32;;;;;;;4.28;1.60;;;;;;;;;;5025355;28;20428;-73
2022/04/08 02:35:59;;;;;;;3.13;1.20;;;;;;;;;;5049943;28;20194;-73
2022/04/08 02:38:25;;;;;;;2.30;1.00;;;;;;;;;;5049191;28;20201;-73
2022/04/08 02:40:52;;;;;;;1.97;0.90;;;;;;;;;;5031954;28;20449;-71
2022/04/08 02:43:19;;;;;;;3.27;1.00;;;;;;;;;;5028361;28;20211;-72
2022/04/08 02:45:46;;;;;;;1.83;1.10;;;;;;;;;;5029174;28;20438;-72
2022/04/08 02:48:18;;;;;;;2.63;1.20;;;;;;;;;;5029963;28;20537;-72
2022/04/08 02:50:45;;;;;;;1.70;0.93;;;;;;;;;;5048220;28;20440;-72
2022/04/08 02:53:12;;;;;;;1.00;0.90;;;;;;;;;;5038557;28;20488;-72
2022/04/08 02:55:38;;;;;;;2.43;1.40;;;;;;;;;;5036064;28;20434;-72
2022/04/08 02:58:22;;;;;;;2.30;1.20;;;;;;;;;;5037583;28;20432;-71
2022/04/08 03:00:49;;;;;;;2.87;1.27;;;;;;;;;;5041399;28;20441;-72
2022/04/08 03:03:16;;;;;;;1.50;1.07;;;;;;;;;;5027575;28;20470;-71
2022/04/08 03:05:43;;;;;;;3.73;1.80;;;;;;;;;;5030794;28;20200;-71
2022/04/08 03:08:09;;;;;;;4.30;1.00;;;;;;;;;;5032671;28;20540;-72
2022/04/08 03:10:36;;;;;;;1.60;1.00;;;;;;;;;;5045968;28;20441;-70
2022/04/08 03:13:04;;;;;;;3.30;1.50;;;;;;;;;;5033106;28;20437;-71
2022/04/08 03:15:32;;;;;;;2.30;1.20;;;;;;;;;;5049095;28;20425;-72
2022/04/08 03:17:58;;;;;;;2.43;1.47;;;;;;;;;;5048013;28;20954;-71
2022/04/08 03:20:25;;;;;;;2.93;1.20;;;;;;;;;;5037790;28;20453;-70
2022/04/08 03:22:52;;;;;;;1.20;1.10;;;;;;;;;;5028521;28;20441;-69
2022/04/08 03:25:36;;;;;;;1.73;1.40;;;;;;;;;;5029188;28;20434;-71
2022/04/08 03:28:03;;;;;;;1.60;1.00;;;;;;;;;;5027675;28;21147;-71
2022/04/08 03:30:31;;;;;;;1.13;0.90;;;;;;;;;;5029630;28;20445;-70
2022/04/08 03:32:58;;;;;;;1.33;1.10;;;;;;;;;;5023526;28;20446;-70
2022/04/08 03:35:25;;;;;;;3.60;1.53;;;;;;;;;;5048064;28;20457;-69
2022/04/08 03:38:00;;;;;;;1.40;1.00;;;;;;;;;;5034700;28;20434;-81
2022/04/08 03:41:06;;;;;;;1.40;1.00;;;;;;;;;;5026169;28;20453;-69
2022/04/08 03:43:34;;;;;;;1.80;1.60;;;;;;;;;;5046537;28;20503;-70
2022/04/08 03:46:01;;;;;;;2.63;1.30;;;;;;;;;;5031487;28;20462;-68
2022/04/08 03:48:29;;;;;;;0.93;0.83;;;;;;;;;;5031328;28;20796;-70
2022/04/08 03:50:56;;;;;;;1.83;1.10;;;;;;;;;;5045136;28;20958;-69
2022/04/08 03:53:23;;;;;;;1.43;1.10;;;;;;;;;;5038535;28;20461;-67
2022/04/08 03:55:50;;;;;;;0.73;0.70;;;;;;;;;;5043819;28;20541;-68
2022/04/08 03:58:18;;;;;;;1.13;1.00;;;;;;;;;;5032623;28;20804;-66
2022/04/08 04:00:45;;;;;;;2.00;1.30;;;;;;;;;;5042163;28;20529;-68
2022/04/08 04:03:12;;;;;;;2.70;1.00;;;;;;;;;;5038589;28;20924;-69
2022/04/08 04:05:43;;;;;;;2.73;0.80;;;;;;;;;;5025023;28;21033;-68
2022/04/08 04:08:15;;;;;;;2.53;0.87;;;;;;;;;;5041002;28;20453;-68
2022/04/08 04:10:42;;;;;;;3.47;1.27;;;;;;;;;;5045341;28;21176;-67
2022/04/08 04:13:09;;;;;;;0.90;0.70;;;;;;;;;;5044695;28;20994;-71
2022/04/08 04:15:36;;;;;;;2.00;0.70;;;;;;;;;;5027175;28;20203;-71
2022/04/08 04:18:03;;;;;;;1.17;0.60;;;;;;;;;;5036502;28;20782;-69
2022/04/08 04:20:30;;;;;;;3.00;0.80;;;;;;;;;;5043284;28;20859;-69
2022/04/08 04:22:57;;;;;;;1.17;0.80;;;;;;;;;;5043939;28;20447;-70
2022/04/08 04:25:26;;;;;;;0.60;0.30;;;;;;;;;;5038220;28;20840;-68
2022/04/08 04:27:55;;;;;;;0.57;0.57;;;;;;;;;;5039681;28;20433;-68
2022/04/08 04:30:24;;;;;;;0.70;0.60;;;;;;;;;;5026530;28;20442;-68
2022/04/08 04:32:53;;;;;;;1.80;0.90;;;;;;;;;;5045816;28;20451;-69
2022/04/08 04:35:20;;;;;;;1.70;1.50;;;;;;;;;;5044083;28;20894;-68
2022/04/08 04:37:47;;;;;;;2.10;1.50;;;;;;;;;;5044511;28;20503;-69
2022/04/08 04:40:13;;;;;;;2.87;1.53;;;;;;;;;;5039776;28;20533;-67
2022/04/08 04:42:40;;;;;;;2.17;0.87;;;;;;;;;;5031723;28;20438;-69
2022/04/08 04:45:07;;;;;;;0.80;0.50;;;;;;;;;;5032512;28;20518;-69
2022/04/08 04:47:34;;;;;;;0.63;0.50;;;;;;;;;;5050020;28;20452;-69
2022/04/08 04:50:01;;;;;;;1.87;0.70;;;;;;;;;;5046240;28;20437;-69
2022/04/08 04:52:28;;;;;;;0.40;0.30;;;;;;;;;;5046060;28;21076;-69
2022/04/08 04:54:56;;;;;;;0.73;0.20;;;;;;;;;;5042646;28;20464;-69
2022/04/08 04:57:23;;;;;;;0.70;0.30;;;;;;;;;;5045611;28;20449;-69
2022/04/08 04:59:50;;;;;;;0.30;0.30;;;;;;;;;;5045862;28;20540;-69
2022/04/08 05:02:17;;;;;;;0.60;0.47;;;;;;;;;;5037121;28;20452;-70
2022/04/08 05:04:44;;;;;;;2.73;0.27;;;;;;;;;;5029128;28;20488;-69
2022/04/08 05:07:11;;;;;;;0.70;0.40;;;;;;;;;;5041711;28;20455;-70
2022/04/08 05:09:38;;;;;;;1.47;0.20;;;;;;;;;;5026819;28;20441;-70
2022/04/08 05:12:06;;;;;;;0.50;0.40;;;;;;;;;;5004360;28;20436;-70
2022/04/08 05:14:33;;;;;;;1.53;0.50;;;;;;;;;;5044516;28;20443;-68
2022/04/08 05:17:18;;;;;;;2.50;0.67;;;;;;;;;;5033190;28;20938;-67
2022/04/08 05:19:45;;;;;;;2.10;0.67;;;;;;;;;;5048637;28;20424;-68
2022/04/08 05:22:13;;;;;;;1.23;0.60;;;;;;;;;;5042235;28;20440;-69
2022/04/08 05:24:40;;;;;;;0.83;0.47;;;;;;;;;;5046787;28;20488;-68
2022/04/08 05:27:07;;;;;;;1.63;0.43;;;;;;;;;;5035303;28;20515;-68
2022/04/08 05:29:34;;;;;;;4.13;0.70;;;;;;;;;;5031696;28;20433;-71
2022/04/08 05:32:01;;;;;;;2.97;1.00;;;;;;;;;;5042108;28;20579;-70
2022/04/08 05:34:28;;;;;;;3.73;1.20;;;;;;;;;;5041025;28;20960;-68
2022/04/08 05:36:55;;;;;;;4.80;1.50;;;;;;;;;;5034211;28;20569;-70
2022/04/08 05:39:22;;;;;;;2.70;1.27;;;;;;;;;;5028378;28;20430;-71
2022/04/08 05:41:49;;;;;;;1.90;0.50;;;;;;;;;;5034367;28;20451;-71
2022/04/08 05:44:17;;;;;;;1.33;0.40;;;;;;;;;;5036102;28;20467;-70
2022/04/08 05:46:44;;;;;;;2.73;1.07;;;;;;;;;;5046156;28;20460;-71
2022/04/08 05:49:10;;;;;;;2.43;0.60;;;;;;;;;;5046679;28;20475;-70
2022/04/08 05:51:37;;;;;;;0.83;0.50;;;;;;;;;;5026873;28;20455;-70
2022/04/08 05:54:07;;;;;;;0.83;0.30;;;;;;;;;;5044436;28;21067;-71
2022/04/08 05:56:34;;;;;;;2.53;0.60;;;;;;;;;;5043478;28;20445;-69
2022/04/08 05:59:01;;;;;;;2.43;0.57;;;;;;;;;;5045228;28;20958;-70
2022/04/08 06:01:28;;;;;;;3.10;1.13;;;;;;;;;;5041359;28;20474;-69
2022/04/08 06:03:55;;;;;;;3.73;0.80;;;;;;;;;;4996638;28;1389616;-67
2022/04/08 06:06:23;;;;;;;3.27;0.90;;;;;;;;;;5046494;28;20191;-66
2022/04/08 06:08:50;;;;;;;4.10;1.03;;;;;;;;;;5047646;28;20435;-67
2022/04/08 06:11:17;;;;;;;2.23;0.60;;;;;;;;;;5047955;28;20933;-69
2022/04/08 06:13:43;;;;;;;3.03;0.63;;;;;;;;;;5047008;28;20524;-67
2022/04/08 06:16:10;;;;;;;3.23;0.70;;;;;;;;;;5047305;28;20487;-68
2022/04/08 06:18:37;;;;;;;2.10;0.60;;;;;;;;;;5046919;28;20524;-70
2022/04/08 06:21:04;;;;;;;0.93;0.43;;;;;;;;;;5047911;28;20461;-71
2022/04/08 06:23:32;;;;;;;4.10;0.50;;;;;;;;;;5046492;28;20804;-68
2022/04/08 06:25:59;;;;;;;2.93;0.57;;;;;;;;;;5046255;28;20486;-69
2022/04/08 06:28:25;;;;;;;3.43;0.87;;;;;;;;;;5044622;28;20486;-68
2022/04/08 06:30:52;;;;;;;1.90;0.60;;;;;;;;;;5047644;28;20445;-70
2022/04/08 06:33:19;;;;;;;3.17;0.80;;;;;;;;;;5047399;28;20442;-69
2022/04/08 06:35:46;;;;;;;1.67;0.63;;;;;;;;;;5048282;28;20562;-68
2022/04/08 06:38:14;;;;;;;3.50;0.80;;;;;;;;;;5043690;28;20437;-69
2022/04/08 06:40:41;;;;;;;1.70;0.80;;;;;;;;;;5033205;28;20797;-70
2022/04/08 06:43:08;;;;;;;2.20;0.50;;;;;;;;;;5035165;28;20446;-71
2022/04/08 06:45:35;;;;;;;3.67;0.90;;;;;;;;;;5041875;28;20481;-71
2022/04/08 06:48:02;;;;;;;4.57;1.07;;;;;;;;;;5045937;28;20467;-72
2022/04/08 06:50:31;;;;;;;2.87;0.40;;;;;;;;;;5047655;28;20526;-70
2022/04/08 06:53:00;;;;;;;0.93;0.57;;;;;;;;;;5046627;28;20433;-69
2022/04/08 06:55:31;;;;;;;2.93;0.77;;;;;;;;;;5045937;28;21007;-70
2022/04/08 06:57:58;;;;;;;3.57;0.90;;;;;;;;;;5026154;28;21002;-69
2022/04/08 07:00:26;;;;;;;3.50;0.60;;;;;;;;;;5039444;28;20444;-70
2022/04/08 07:02:54;;;;;;;3.30;0.70;;;;;;;;;;5045705;28;20441;-71
2022/04/08 07:05:24;;;;;;;2.27;0.73;;;;;;;;;;5047391;28;20596;-68
2022/04/08 07:07:53;;;;;;;3.37;0.77;;;;;;;;;;5045596;28;20442;-69
2022/04/08 07:10:23;;;;;;;2.97;0.70;;;;;;;;;;5046399;28;20425;-68
2022/04/08 07:12:50;;;;;;;3.17;0.93;;;;;;;;;;5036664;28;20949;-69
2022/04/08 07:15:18;;;;;;;2.57;0.90;;;;;;;;;;5043820;28;20437;-70
2022/04/08 07:17:45;;;;;;;3.13;1.00;;;;;;;;;;5042029;28;20277;-68
2022/04/08 07:20:16;;;;;;;1.30;0.60;;;;;;;;;;5011708;28;20213;-68
2022/04/08 07:22:44;;;;;;;3.83;1.30;;;;;;;;;;5042163;28;20475;-69
2022/04/08 07:25:11;;;;;;;1.33;0.50;;;;;;;;;;5046104;28;20476;-67
2022/04/08 07:27:42;;;;;;;2.00;0.93;;;;;;;;;;5046767;28;20437;-71
2022/04/08 07:30:11;;;;;;;2.77;0.90;;;;;;;;;;5045252;28;20456;-69
2022/04/08 07:32:38;;;;;;;1.87;0.53;;;;;;;;;;5029049;28;20441;-69
2022/04/08 07:35:05;;;;;;;6.83;0.80;;;;;;;;;;5044366;28;20524;-69
2022/04/08 07:37:32;;;;;;;4.07;0.80;;;;;;;;;;5040167;28;20953;-68
2022/04/08 07:40:00;;;;;;;1.90;0.70;;;;;;;;;;5033748;28;20527;-68
2022/04/08 07:42:28;;;;;;;4.07;0.70;;;;;;;;;;5043848;28;20282;-67
2022/04/08 07:44:55;;;;;;;3.17;0.70;;;;;;;;;;5046115;28;20218;-68
2022/04/08 07:47:26;;;;;;;2.17;0.70;;;;;;;;;;5031220;28;20202;-68
2022/04/08 07:49:58;;;;;;;5.30;0.90;;;;;;;;;;5045304;28;20259;-71
2022/04/08 07:52:26;;;;;;;5.43;0.87;;;;;;;;;;5045461;28;20444;-73
2022/04/08 07:54:54;;;;;;;3.33;0.80;;;;;;;;;;5024736;28;20438;-71
2022/04/08 07:57:21;;;;;;;5.10;2.20;;;;;;;;;;5032250;28;20226;-68
2022/04/08 07:59:48;;;;;;;3.93;1.20;;;;;;;;;;5028966;28;20183;-68
2022/04/08 08:02:15;;;;;;;3.37;1.07;;;;;;;;;;5045154;28;20249;-68
2022/04/08 08:04:47;;;;;;;3.20;1.17;;;;;;;;;;5044825;28;20834;-68
2022/04/08 08:07:15;;;;;;;1.27;0.43;;;;;;;;;;5045898;28;20195;-69
2022/04/08 08:09:42;;;;;;;3.43;0.80;;;;;;;;;;5044642;28;20256;-69
2022/04/08 08:12:24;;;;;;;3.47;0.83;;;;;;;;;;5045423;28;20214;-63
2022/04/08 08:14:52;;;;;;;2.87;1.00;;;;;;;;;;5044669;28;20293;-64
2022/04/08 08:17:20;;;;;;;3.87;0.80;;;;;;;;;;5046664;28;20205;-64
2022/04/08 08:19:47;;;;;;;8.33;1.10;;;;;;;;;;5046110;28;20186;-67
2022/04/08 08:22:17;;;;;;;4.93;0.97;;;;;;;;;;5028381;28;20802;-60
2022/04/08 08:24:45;;;;;;;3.27;1.13;;;;;;;;;;5046151;28;20211;-76
2022/04/08 08:27:12;;;;;;;2.50;1.13;;;;;;;;;;5045854;28;20239;-69
2022/04/08 08:29:40;;;;;;;2.47;0.90;;;;;;;;;;5045435;28;20271;-66
2022/04/08 08:32:08;;;;;;;6.07;0.97;;;;;;;;;;5040142;28;20187;-66
2022/04/08 08:34:35;;;;;;;2.07;0.90;;;;;;;;;;5044122;28;20211;-66
2022/04/08 08:37:02;;;;;;;3.63;0.90;;;;;;;;;;5045664;28;21057;-64
2022/04/08 08:39:29;;;;;;;3.13;0.90;;;;;;;;;;5039343;28;20282;-64
2022/04/08 08:41:56;;;;;;;4.97;1.00;;;;;;;;;;5029637;28;20201;-64
2022/04/08 08:44:22;;;;;;;2.80;0.90;;;;;;;;;;5045298;28;20194;-63
2022/04/08 08:46:50;;;;;;;4.20;0.73;;;;;;;;;;5044258;28;20213;-66
2022/04/08 08:49:18;;;;;;;3.37;1.47;;;;;;;;;;5045641;28;20251;-65
2022/04/08 08:52:06;;;;;;;4.47;1.00;;;;;;;;;;5043981;28;20178;-65
2022/04/08 08:54:34;;;;;;;3.27;0.80;;;;;;;;;;5026342;28;20281;-64
2022/04/08 08:57:02;;;;;;;3.57;0.87;;;;;;;;;;5024531;28;20199;-64
2022/04/08 08:59:29;;;;;;;3.87;0.53;;;;;;;;;;5024737;28;20195;-65
2022/04/08 09:02:00;;;;;;;2.20;0.70;;;;;;;;;;5025512;28;20195;-64
2022/04/08 09:04:28;;;;;;;7.30;1.20;;;;;;;;;;5024203;28;20732;-64
2022/04/08 09:06:54;;;;;;;3.53;0.60;;;;;;;;;;5024330;28;20237;-64
2022/04/08 09:09:31;;;;;;;7.67;1.53;;;;;;;;;;5023630;28;20592;-65
2022/04/08 09:12:13;;;;;;;5.70;1.20;;;;;;;;;;5025016;28;20206;-68
2022/04/08 09:14:50;;;;;;;4.90;1.13;;;;;;;;;;4999151;28;20188;-65
2022/04/08 09:17:18;;;;;;;6.20;0.93;;;;;;;;;;5048629;28;20561;-64
2022/04/08 09:19:48;;;;;;;5.13;1.23;;;;;;;;;;5045231;28;20194;-63
2022/04/08 09:22:15;;;;;;;6.47;0.70;;;;;;;;;;5037868;28;20222;-64
2022/04/08 09:24:42;;;;;;;5.63;0.90;;;;;;;;;;5044666;28;20928;-64
2022/04/08 09:27:10;;;;;;;4.07;1.33;;;;;;;;;;5043827;28;20195;-64
2022/04/08 09:29:36;;;;;;;3.87;1.00;;;;;;;;;;5045976;28;20187;-66
2022/04/08 09:32:25;;;;;;;6.13;1.30;;;;;;;;;;5030057;28;20198;-67
2022/04/08 09:34:52;;;;;;;4.90;1.50;;;;;;;;;;5029831;28;20212;-66
2022/04/08 09:37:19;;;;;;;5.57;1.37;;;;;;;;;;5044959;28;20991;-68
2022/04/08 09:39:58;;;;;;;8.90;1.47;;;;;;;;;;5035798;28;20203;-66
2022/04/08 09:42:41;;;;;;;5.80;1.20;;;;;;;;;;5035080;28;20256;-65
2022/04/08 09:45:09;;;;;;;5.30;1.27;;;;;;;;;;5045587;28;20215;-65
2022/04/08 09:47:36;;;;;;;2.83;1.23;;;;;;;;;;5045672;28;20178;-66
2022/04/08 09:50:04;;;;;;;3.13;0.80;;;;;;;;;;5023276;28;20234;-66
2022/04/08 09:52:31;;;;;;;4.53;0.90;;;;;;;;;;5034040;28;20187;-67
2022/04/08 09:54:58;;;;;;;5.13;1.20;;;;;;;;;;5042760;28;20244;-67
2022/04/08 09:57:25;;;;;;;4.73;1.17;;;;;;;;;;5045739;28;20194;-67
2022/04/08 09:59:53;;;;;;;5.63;0.73;;;;;;;;;;5047661;28;20195;-67
2022/04/08 10:02:23;;;;;;;4.20;1.43;;;;;;;;;;5047558;28;20217;-66
2022/04/08 10:05:03;;;;;;;3.67;0.87;;;;;;;;;;5046446;28;20327;-66
2022/04/08 10:07:30;;;;;;;4.83;1.43;;;;;;;;;;5049212;28;20195;-68
2022/04/08 10:10:06;;;;;;;5.77;0.80;;;;;;;;;;5047230;28;20190;-67
2022/04/08 10:12:55;;;;;;;3.40;1.17;;;;;;;;;;5048264;28;20617;-67
2022/04/08 10:15:40;;;;;;;7.33;1.20;;;;;;;;;;5047435;28;20244;-66
2022/04/08 10:18:07;;;;;;;3.37;0.97;;;;;;;;;;5048291;28;20190;-67
2022/04/08 10:20:35;;;;;;;6.43;0.80;;;;;;;;;;5044338;28;20650;-66
2022/04/08 10:23:12;;;;;;;6.77;1.00;;;;;;;;;;5037136;28;20575;-66
2022/04/08 10:25:39;;;;;;;3.13;1.20;;;;;;;;;;5033362;28;20330;-65
2022/04/08 10:28:07;;;;;;;4.33;1.13;;;;;;;;;;5026848;28;20285;-64
2022/04/08 10:30:35;;;;;;;7.83;1.47;;;;;;;;;;5028233;28;20196;-64
2022/04/08 10:33:03;;;;;;;2.07;0.40;;;;;;;;;;5032581;28;20187;-64
2022/04/08 10:35:30;;;;;;;4.77;0.80;;;;;;;;;;5028614;28;20222;-64
2022/04/08 10:38:00;;;;;;;6.50;1.13;;;;;;;;;;5044379;28;20706;-63
2022/04/08 10:40:34;;;;;;;4.10;1.30;;;;;;;;;;5035416;28;20191;-64
2022/04/08 10:43:01;;;;;;;4.83;1.20;;;;;;;;;;5043471;28;20284;-64
2022/04/08 10:45:29;;;;;;;3.67;0.60;;;;;;;;;;5032580;28;20238;-65
2022/04/08 10:47:59;;;;;;;2.83;0.97;;;;;;;;;;5043989;28;20198;-65
2022/04/08 10:50:27;;;;;;;2.87;0.80;;;;;;;;;;5036734;28;20215;-64
2022/04/08 10:53:03;;;;;;;1.60;0.53;;;;;;;;;;5026185;28;20188;-65
2022/04/08 10:55:30;;;;;;;6.23;1.00;;;;;;;;;;5027912;28;20620;-64
2022/04/08 10:58:15;;;;;;;4.73;0.80;;;;;;;;;;5044857;28;20285;-63
2022/04/08 11:00:44;;;;;;;5.60;1.03;;;;;;;;;;5047564;28;20566;-65
2022/04/08 11:03:11;;;;;;;3.03;1.00;;;;;;;;;;5045734;28;20206;-64
2022/04/08 11:05:38;;;;;;;6.60;1.30;;;;;;;;;;5047806;28;20253;-65
2022/04/08 11:08:06;;;;;;;4.93;1.20;;;;;;;;;;5046326;28;20278;-65
2022/04/08 11:10:33;;;;;;;2.77;0.93;;;;;;;;;;5047058;28;20681;-67
2022/04/08 11:13:00;;;;;;;2.40;1.23;;;;;;;;;;5044148;28;20302;-65
2022/04/08 11:15:28;;;;;;;4.27;0.90;;;;;;;;;;5029231;28;20313;-65
2022/04/08 11:18:13;;;;;;;6.63;1.30;;;;;;;;;;5045813;28;20183;-68
2022/04/08 11:20:40;;;;;;;2.33;0.70;;;;;;;;;;5026349;28;20218;-65
2022/04/08 11:23:08;;;;;;;5.13;1.10;;;;;;;;;;5045491;28;20195;-65
2022/04/08 11:25:36;;;;;;;5.20;1.07;;;;;;;;;;5031252;28;20203;-67
2022/04/08 11:28:07;;;;;;;4.03;1.30;;;;;;;;;;5029856;28;20191;-67
2022/04/08 11:30:55;;;;;;;4.07;0.80;;;;;;;;;;5030551;28;20176;-66
2022/04/08 11:33:22;;;;;;;5.90;1.00;;;;;;;;;;5040306;28;20234;-65
2022/04/08 11:35:53;;;;;;;2.57;0.80;;;;;;;;;;5032385;28;20282;-65
2022/04/08 11:38:23;;;;;;;1.60;0.43;;;;;;;;;;5033192;28;20232;-66
2022/04/08 11:41:07;;;;;;;3.10;1.37;;;;;;;;;;5028808;28;20547;-65
2022/04/08 11:43:35;;;;;;;5.60;0.70;;;;;;;;;;5028214;28;20776;-66
2022/04/08 11:46:02;;;;;;;5.60;1.30;;;;;;;;;;5030288;28;21005;-67
2022/04/08 11:48:29;;;;;;;3.00;0.90;;;;;;;;;;5027295;28;20202;-66
2022/04/08 11:51:03;;;;;;;2.40;1.20;;;;;;;;;;5034533;28;20187;-65
2022/04/08 11:53:30;;;;;;;2.97;0.87;;;;;;;;;;5044663;28;20277;-67
2022/04/08 11:56:06;;;;;;;3.23;0.73;;;;;;;;;;5015402;28;20223;-64
2022/04/08 11:58:33;;;;;;;3.47;1.17;;;;;;;;;;5023851;28;20199;-64
2022/04/08 12:01:00;;;;;;;4.37;1.00;;;;;;;;;;5022543;28;20898;-64
2022/04/08 12:03:28;;;;;;;5.10;1.17;;;;;;;;;;4994129;28;20238;-64
2022/04/08 12:05:55;;;;;;;2.07;0.50;;;;;;;;;;5026316;28;20211;-64
2022/04/08 12:08:39;;;;;;;2.90;0.70;;;;;;;;;;5026377;28;20195;-64
2022/04/08 12:11:09;;;;;;;6.37;1.13;;;;;;;;;;5006153;28;20200;-63
2022/04/08 12:13:38;;;;;;;3.33;0.83;;;;;;;;;;5015551;28;20603;-64
2022/04/08 12:16:08;;;;;;;1.73;0.50;;;;;;;;;;5006906;28;20218;-64
2022/04/08 12:18:35;;;;;;;1.73;0.77;;;;;;;;;;5002104;28;20204;-64
2022/04/08 12:21:04;;;;;;;3.43;1.00;;;;;;;;;;5006982;28;20224;-64
2022/04/08 12:23:30;;;;;;;2.60;0.70;;;;;;;;;;5022907;28;20262;-64
2022/04/08 12:26:15;;;;;;;6.30;1.47;;;;;;;;;;5010455;28;20207;-64
2022/04/08 12:28:42;;;;;;;6.13;1.37;;;;;;;;;;5013122;28;20968;-64
2022/04/08 12:31:17;;;;;;;7.43;1.33;;;;;;;;;;5025695;28;20187;-65
2022/04/08 12:33:45;;;;;;;4.90;1.13;;;;;;;;;;5023593;28;20242;-64
2022/04/08 12:36:30;;;;;;;4.07;1.07;;;;;;;;;;5026275;28;20512;-64
2022/04/08 12:38:57;;;;;;;3.93;0.97;;;;;;;;;;5025731;28;20198;-64
2022/04/08 12:41:25;;;;;;;3.63;1.40;;;;;;;;;;4990962;28;20612;-64
2022/04/08 12:43:54;;;;;;;6.87;1.60;;;;;;;;;;5020561;28;20283;-65
2022/04/08 12:46:21;;;;;;;2.23;0.73;;;;;;;;;;5006760;28;20220;-65
2022/04/08 12:48:49;;;;;;;5.73;1.20;;;;;;;;;;5024299;28;20299;-64
2022/04/08 12:51:16;;;;;;;4.07;1.40;;;;;;;;;;5026197;28;20211;-64
2022/04/08 12:53:44;;;;;;;4.23;1.17;;;;;;;;;;5019850;28;20197;-63
2022/04/08 12:56:11;;;;;;;5.13;1.50;;;;;;;;;;5005221;28;20247;-65
2022/04/08 12:58:38;;;;;;;4.67;1.23;;;;;;;;;;5013274;28;20666;-65
2022/04/08 13:01:05;;;;;;;5.67;1.70;;;;;;;;;;5025679;28;20184;-65
2022/04/08 13:03:33;;;;;;;7.57;1.77;;;;;;;;;;5023425;28;20223;-64
2022/04/08 13:06:00;;;;;;;6.93;1.43;;;;;;;;;;5020535;28;20227;-67
2022/04/08 13:08:28;;;;;;;4.83;1.33;;;;;;;;;;5025906;28;20183;-65
2022/04/08 13:10:55;;;;;;;3.47;0.90;;;;;;;;;;5009929;28;20285;-70
2022/04/08 13:13:22;;;;;;;2.23;0.80;;;;;;;;;;5020583;28;21000;-70
2022/04/08 13:15:49;;;;;;;4.20;1.07;;;;;;;;;;5024605;28;20673;-66
2022/04/08 13:18:16;;;;;;;1.90;0.67;;;;;;;;;;5024874;28;20287;-65
2022/04/08 13:20:44;;;;;;;7.13;1.40;;;;;;;;;;5025384;28;20283;-66
2022/04/08 13:23:11;;;;;;;3.73;1.40;;;;;;;;;;5026067;28;20195;-65
2022/04/08 13:25:38;;;;;;;4.33;1.47;;;;;;;;;;5022550;28;20689;-70
2022/04/08 13:28:05;;;;;;;2.50;1.03;;;;;;;;;;5019141;28;20585;-65
2022/04/08 13:30:32;;;;;;;1.57;0.83;;;;;;;;;;5026080;28;20203;-68
2022/04/08 13:32:59;;;;;;;5.47;1.20;;;;;;;;;;5028513;28;20207;-72
2022/04/08 13:35:26;;;;;;;5.03;0.90;;;;;;;;;;5026596;28;20195;-71
2022/04/08 13:37:53;;;;;;;5.33;1.00;;;;;;;;;;5023211;28;20202;-72
2022/04/08 13:40:20;;;;;;;4.90;0.90;;;;;;;;;;5016914;28;20208;-72
2022/04/08 13:42:47;;;;;;;3.67;1.10;;;;;;;;;;5025506;28;20191;-71
2022/04/08 13:45:14;;;;;;;4.40;1.07;;;;;;;;;;5029630;28;20238;-70
2022/04/08 13:47:41;;;;;;;3.00;1.00;;;;;;;;;;5027980;28;20215;-75
2022/04/08 13:50:08;;;;;;;3.20;1.13;;;;;;;;;;5009333;28;20196;-75
2022/04/08 13:52:35;;;;;;;3.77;1.00;;;;;;;;;;5022074;28;20199;-72
2022/04/08 13:55:03;;;;;;;3.10;0.67;;;;;;;;;;5008473;28;20207;-72
2022/04/08 13:57:30;;;;;;;3.63;0.77;;;;;;;;;;5017774;28;20191;-70
2022/04/08 13:59:58;;;;;;;5.13;1.30;;;;;;;;;;5014054;28;20249;-70
2022/04/08 14:02:25;;;;;;;2.90;1.07;;;;;;;;;;5010242;28;20184;-71
2022/04/08 14:04:55;;;;;;;2.93;0.90;;;;;;;;;;5011020;28;20216;-71
2022/04/08 14:07:21;;;;;;;5.60;1.20;;;;;;;;;;5015811;28;20934;-71
2022/04/08 14:09:49;;;;;;;5.73;1.60;;;;;;;;;;5028772;28;20230;-72
2022/04/08 14:12:16;;;;;;;2.83;0.70;;;;;;;;;;4997096;28;20242;-71
2022/04/08 14:14:43;;;;;;;1.30;0.50;;;;;;;;;;5029299;28;20202;-72
2022/04/08 14:17:31;;;;;;;2.90;0.53;;;;;;;;;;5030161;28;20271;-71
2022/04/08 14:19:59;;;;;;;5.20;1.40;;;;;;;;;;5025234;28;20206;-72
2022/04/08 14:22:28;;;;;;;2.70;1.00;;;;;;;;;;5022616;28;20281;-73
2022/04/08 14:24:55;;;;;;;5.37;1.47;;;;;;;;;;5007465;28;20184;-75
2022/04/08 14:27:43;;;;;;;3.67;0.90;;;;;;;;;;5008834;28;20215;-74
2022/04/08 14:30:29;;;;;;;2.37;0.83;;;;;;;;;;5021841;28;20689;-75
2022/04/08 14:32:56;;;;;;;3.67;1.37;;;;;;;;;;5023038;28;20192;-70
2022/04/08 14:35:26;;;;;;;3.70;1.20;;;;;;;;;;5022319;28;20191;-69
2022/04/08 14:37:53;;;;;;;7.53;1.60;;;;;;;;;;5019921;28;20661;-72
2022/04/08 14:40:20;;;;;;;5.47;1.67;;;;;;;;;;5021688;28;20192;-73
2022/04/08 14:43:05;;;;;;;5.50;1.40;;;;;;;;;;5021458;28;20184;-72
2022/04/08 14:45:33;;;;;;;4.03;0.87;;;;;;;;;;5008959;28;20207;-72
2022/04/08 14:47:59;;;;;;;6.30;1.57;;;;;;;;;;5027181;28;20357;-72
2022/04/08 14:50:26;;;;;;;4.83;1.10;;;;;;;;;;5026773;28;20188;-72
2022/04/08 14:52:53;;;;;;;4.60;1.20;;;;;;;;;;5028419;28;20744;-72
2022/04/08 14:55:21;;;;;;;3.10;1.03;;;;;;;;;;5020306;28;20187;-74
2022/04/08 14:57:48;;;;;;;1.63;0.90;;;;;;;;;;5014737;28;20249;-72
2022/04/08 15:00:15;;;;;;;3.27;0.90;;;;;;;;;;5007036;28;20223;-72
2022/04/08 15:02:42;;;;;;;1.43;0.73;;;;;;;;;;5015520;28;20196;-72
2022/04/08 15:05:09;;;;;;;4.13;0.80;;;;;;;;;;4992058;28;20310;-72
2022/04/08 15:07:36;;;;;;;2.33;0.27;;;;;;;;;;5031829;28;20329;-71
2022/04/08 15:10:03;;;;;;;3.07;0.87;;;;;;;;;;5020017;28;20266;-73
2022/04/08 15:12:30;;;;;;;4.47;1.20;;;;;;;;;;5027784;28;20271;-73
2022/04/08 15:15:00;;;;;;;1.67;0.70;;;;;;;;;;5040620;28;20218;-72
2022/04/08 15:17:27;;;;;;;6.37;1.00;;;;;;;;;;5035197;28;20241;-72
2022/04/08 15:19:55;;;;;;;1.47;0.73;;;;;;;;;;5025773;28;20211;-69
2022/04/08 15:22:27;;;;;;;3.30;1.13;;;;;;;;;;5026967;28;20200;-69
2022/04/08 15:25:05;;;;;;;4.37;1.13;;;;;;;;;;5023921;28;20227;-69
2022/04/08 15:27:32;;;;;;;4.50;1.10;;;;;;;;;;5033426;28;20217;-68